Time;durP1;ratioP1;P1;durP2;ratioP2;P2;SDS_P1;SDS_P2;PMS_P1;PMS_P2;Temp;Humidity;BMP_temperature;BMP_pressure;BME280_temperature;BME280_humidity;BME280_pressure;Samples;Min_cycle;Max_cycle;Signal;HPM_P1;HPM_P2
2022/10/04 00:02:42;;;;;;;3.03;2.20;;;;;;;;;;5017870;28;20224;-82
2022/10/04 00:05:55;;;;;;;4.20;2.47;;;;;;;;;;5017333;28;20180;-83
2022/10/04 00:09:10;;;;;;;5.37;2.40;;;;;;;;;;5017341;28;20177;-83
2022/10/04 00:12:32;;;;;;;7.00;2.47;;;;;;;;;;5017990;28;20185;-82
2022/10/04 00:15:37;;;;;;;4.03;2.50;;;;;;;;;;5007151;28;20177;-82
2022/10/04 00:18:44;;;;;;;4.57;2.17;;;;;;;;;;5018185;28;20209;-82
2022/10/04 00:21:52;;;;;;;9.60;2.20;;;;;;;;;;5018143;28;20188;-82
2022/10/04 00:25:05;;;;;;;3.57;2.17;;;;;;;;;;5028997;28;20181;-82
2022/10/04 00:28:19;;;;;;;3.27;2.50;;;;;;;;;;5016955;28;20188;-83
2022/10/04 00:31:25;;;;;;;3.10;2.53;;;;;;;;;;5017762;28;20669;-82
2022/10/04 00:34:29;;;;;;;3.00;2.50;;;;;;;;;;5005831;28;20181;-82
2022/10/04 00:37:57;;;;;;;3.97;2.33;;;;;;;;;;5017064;28;20185;-83
2022/10/04 00:41:07;;;;;;;5.43;2.33;;;;;;;;;;5028437;28;20189;-82
2022/10/04 00:44:27;;;;;;;6.17;2.63;;;;;;;;;;5029569;28;20221;-83
2022/10/04 00:47:47;;;;;;;3.70;2.23;;;;;;;;;;5008203;28;20185;-82
2022/10/04 00:51:01;;;;;;;2.40;2.20;;;;;;;;;;5017745;28;20185;-83
2022/10/04 00:54:22;;;;;;;4.83;2.60;;;;;;;;;;5006179;28;20220;-83
2022/10/04 00:57:42;;;;;;;6.33;2.80;;;;;;;;;;5016657;28;20205;-82
2022/10/04 01:00:48;;;;;;;3.37;2.30;;;;;;;;;;5029396;28;20640;-82
2022/10/04 01:03:56;;;;;;;2.67;2.10;;;;;;;;;;5017062;28;20212;-83
2022/10/04 01:07:03;;;;;;;3.43;2.10;;;;;;;;;;5036399;28;20185;-83
2022/10/04 01:10:12;;;;;;;3.83;2.47;;;;;;;;;;5005227;28;20189;-82
2022/10/04 01:13:19;;;;;;;3.73;2.20;;;;;;;;;;5027893;28;20212;-82
2022/10/04 01:16:33;;;;;;;2.10;1.90;;;;;;;;;;5028299;28;20196;-82
2022/10/04 01:19:37;;;;;;;5.67;2.13;;;;;;;;;;5008646;28;20205;-82
2022/10/04 01:22:49;;;;;;;7.53;2.10;;;;;;;;;;5020577;28;20220;-82
2022/10/04 01:25:53;;;;;;;2.90;2.50;;;;;;;;;;5043699;28;20181;-82
2022/10/04 01:29:08;;;;;;;4.47;2.20;;;;;;;;;;5009476;28;20181;-82
2022/10/04 01:32:12;;;;;;;5.27;2.23;;;;;;;;;;5032933;28;20185;-81
2022/10/04 01:35:19;;;;;;;4.07;2.43;;;;;;;;;;5021301;28;20651;-82
2022/10/04 01:38:23;;;;;;;11.87;2.30;;;;;;;;;;5009896;28;20205;-82
2022/10/04 01:41:39;;;;;;;4.60;2.30;;;;;;;;;;5008331;28;20177;-82
2022/10/04 01:45:00;;;;;;;4.33;2.83;;;;;;;;;;5030236;28;20201;-81
2022/10/04 01:48:11;;;;;;;10.03;2.40;;;;;;;;;;5030509;28;20185;-82
2022/10/04 01:51:28;;;;;;;2.63;2.37;;;;;;;;;;5030995;28;20185;-82
2022/10/04 01:54:43;;;;;;;4.70;2.90;;;;;;;;;;5019817;28;20193;-82
2022/10/04 01:57:53;;;;;;;4.17;2.43;;;;;;;;;;5042538;28;20193;-82
2022/10/04 02:01:09;;;;;;;3.50;2.10;;;;;;;;;;5019511;28;20193;-82
2022/10/04 02:04:21;;;;;;;5.57;2.37;;;;;;;;;;5020281;28;20684;-81
2022/10/04 02:07:30;;;;;;;3.50;2.20;;;;;;;;;;5031113;28;20181;-81
2022/10/04 02:10:37;;;;;;;4.00;1.93;;;;;;;;;;5008479;28;20185;-81
2022/10/04 02:13:44;;;;;;;6.07;2.23;;;;;;;;;;5042036;28;20221;-81
2022/10/04 02:16:52;;;;;;;4.33;2.60;;;;;;;;;;5019490;28;20177;-82
2022/10/04 02:20:00;;;;;;;4.20;2.37;;;;;;;;;;5031439;28;20676;-81
2022/10/04 02:23:05;;;;;;;7.47;2.03;;;;;;;;;;5030789;28;20216;-82
2022/10/04 02:26:11;;;;;;;5.03;2.40;;;;;;;;;;5008608;28;20181;-81
2022/10/04 02:29:19;;;;;;;3.97;2.07;;;;;;;;;;5019274;28;20177;-82
2022/10/04 02:35:47;;;;;;;16.37;2.80;;;;;;;;;;5042303;28;20536;-81
2022/10/04 02:39:29;;;;;;;3.00;2.20;;;;;;;;;;5030030;28;20209;-83
2022/10/04 02:42:42;;;;;;;6.13;2.10;;;;;;;;;;4984622;28;20762;-81
2022/10/04 02:45:55;;;;;;;3.87;1.93;;;;;;;;;;5019519;28;20181;-81
2022/10/04 02:49:04;;;;;;;4.00;2.00;;;;;;;;;;5019368;28;20173;-81
2022/10/04 02:52:20;;;;;;;3.03;1.77;;;;;;;;;;5019905;28;20177;-82
2022/10/04 02:55:31;;;;;;;5.77;1.97;;;;;;;;;;5019843;28;20177;-82
2022/10/04 02:58:38;;;;;;;3.57;2.23;;;;;;;;;;5044034;28;20201;-82
2022/10/04 03:01:57;;;;;;;3.73;2.00;;;;;;;;;;5019543;28;20184;-81
2022/10/04 03:05:09;;;;;;;2.93;2.03;;;;;;;;;;5029440;28;20185;-81
2022/10/04 03:08:13;;;;;;;2.90;2.20;;;;;;;;;;5041413;28;20193;-82
2022/10/04 03:11:21;;;;;;;3.83;1.80;;;;;;;;;;5017968;28;20181;-81
2022/10/04 03:14:27;;;;;;;4.10;2.20;;;;;;;;;;5018975;28;20177;-82
2022/10/04 03:17:33;;;;;;;3.77;1.97;;;;;;;;;;5030092;28;20214;-82
2022/10/04 03:20:39;;;;;;;2.50;1.60;;;;;;;;;;5019093;28;20204;-81
2022/10/04 03:23:45;;;;;;;2.07;1.57;;;;;;;;;;5007603;28;20220;-81
2022/10/04 03:26:54;;;;;;;4.00;2.03;;;;;;;;;;5007286;28;20180;-82
2022/10/04 03:30:00;;;;;;;3.67;2.07;;;;;;;;;;5018111;28;20620;-81
2022/10/04 03:33:05;;;;;;;2.30;1.80;;;;;;;;;;5008090;28;20212;-81
2022/10/04 03:36:13;;;;;;;3.83;1.97;;;;;;;;;;5008949;28;20185;-82
2022/10/04 03:39:26;;;;;;;4.07;2.20;;;;;;;;;;5018374;28;20212;-81
2022/10/04 03:42:33;;;;;;;3.23;2.27;;;;;;;;;;5017467;28;20225;-82
2022/10/04 03:45:40;;;;;;;7.43;2.80;;;;;;;;;;5040283;28;20177;-83
2022/10/04 03:48:49;;;;;;;6.23;2.30;;;;;;;;;;5006921;28;20173;-82
2022/10/04 03:51:53;;;;;;;3.17;2.33;;;;;;;;;;5018459;28;20181;-82
2022/10/04 03:55:02;;;;;;;5.77;2.60;;;;;;;;;;5007173;28;20184;-82
2022/10/04 03:58:10;;;;;;;7.03;3.07;;;;;;;;;;5016952;28;20173;-82
2022/10/04 04:01:30;;;;;;;3.50;2.43;;;;;;;;;;5017433;28;20173;-83
2022/10/04 04:04:44;;;;;;;4.17;2.53;;;;;;;;;;5016367;28;20189;-81
2022/10/04 04:08:11;;;;;;;3.43;2.63;;;;;;;;;;5017546;28;20180;-81
2022/10/04 04:11:22;;;;;;;8.70;3.53;;;;;;;;;;5007076;28;20169;-81
2022/10/04 04:14:26;;;;;;;5.80;3.73;;;;;;;;;;5028957;28;20533;-81
2022/10/04 04:17:34;;;;;;;8.17;3.77;;;;;;;;;;5017101;28;20185;-82
2022/10/04 04:20:40;;;;;;;8.30;2.70;;;;;;;;;;5006166;28;20656;-81
2022/10/04 04:23:59;;;;;;;5.47;2.57;;;;;;;;;;5006589;28;20216;-82
2022/10/04 04:27:04;;;;;;;5.00;2.47;;;;;;;;;;5017743;28;20625;-81
2022/10/04 04:30:15;;;;;;;2.53;2.00;;;;;;;;;;5016907;28;20177;-82
2022/10/04 04:33:35;;;;;;;4.67;2.17;;;;;;;;;;5015903;28;20220;-82
2022/10/04 04:36:40;;;;;;;6.60;2.37;;;;;;;;;;5005526;28;20184;-82
2022/10/04 04:39:54;;;;;;;2.63;1.77;;;;;;;;;;5027661;28;20205;-82
2022/10/04 04:43:00;;;;;;;3.13;1.80;;;;;;;;;;5027760;28;20220;-82
2022/10/04 04:46:07;;;;;;;2.27;1.90;;;;;;;;;;5040743;28;20544;-82
2022/10/04 04:49:15;;;;;;;6.50;2.30;;;;;;;;;;5006622;28;20184;-82
2022/10/04 04:52:24;;;;;;;6.33;2.10;;;;;;;;;;5017347;28;20224;-82
2022/10/04 04:55:33;;;;;;;5.23;2.00;;;;;;;;;;5006032;28;20189;-82
2022/10/04 04:58:42;;;;;;;4.30;2.53;;;;;;;;;;5012401;28;20620;-82
2022/10/04 05:02:03;;;;;;;4.10;2.27;;;;;;;;;;5015683;28;20188;-81
2022/10/04 05:05:19;;;;;;;8.67;2.27;;;;;;;;;;5038572;28;20181;-81
2022/10/04 05:08:28;;;;;;;2.57;2.00;;;;;;;;;;5006172;28;20197;-81
2022/10/04 05:11:37;;;;;;;7.77;2.40;;;;;;;;;;5015045;28;20200;-82
2022/10/04 05:14:49;;;;;;;6.77;2.90;;;;;;;;;;5027219;28;20197;-82
2022/10/04 05:17:53;;;;;;;6.40;3.40;;;;;;;;;;5026598;28;20556;-81
2022/10/04 05:21:24;;;;;;;5.80;2.93;;;;;;;;;;5026498;28;20668;-82
2022/10/04 05:24:42;;;;;;;6.63;2.63;;;;;;;;;;5031935;28;20200;-82
2022/10/04 05:27:49;;;;;;;5.13;3.03;;;;;;;;;;4996968;28;20669;-81
2022/10/04 05:31:26;;;;;;;6.60;3.30;;;;;;;;;;5016636;28;20197;-81
2022/10/04 05:34:40;;;;;;;4.53;3.00;;;;;;;;;;5008001;28;20189;-82
2022/10/04 05:37:57;;;;;;;8.53;3.63;;;;;;;;;;4997045;28;20653;-81
2022/10/04 05:41:08;;;;;;;6.30;3.47;;;;;;;;;;5024772;28;20225;-82
2022/10/04 05:44:30;;;;;;;4.27;3.13;;;;;;;;;;5004821;28;20220;-82
2022/10/04 05:47:34;;;;;;;7.33;2.70;;;;;;;;;;5026238;28;20181;-83
2022/10/04 05:50:40;;;;;;;4.97;2.80;;;;;;;;;;5015302;28;20181;-82
2022/10/04 05:53:45;;;;;;;5.87;2.87;;;;;;;;;;5017356;28;20209;-82
2022/10/04 05:57:09;;;;;;;7.83;4.33;;;;;;;;;;5014737;28;20206;-82
2022/10/04 06:00:22;;;;;;;8.43;4.40;;;;;;;;;;5010448;28;20221;-82
2022/10/04 06:03:48;;;;;;;8.93;4.23;;;;;;;;;;5019593;28;20224;-81
2022/10/04 06:07:20;;;;;;;7.17;4.20;;;;;;;;;;5006519;28;20196;-82
2022/10/04 06:11:02;;;;;;;5.70;3.90;;;;;;;;;;5017738;28;20177;-82
2022/10/04 06:14:23;;;;;;;7.27;4.07;;;;;;;;;;5018706;28;20217;-82
2022/10/04 06:17:47;;;;;;;6.13;3.90;;;;;;;;;;5017887;28;20180;-82
2022/10/04 06:21:07;;;;;;;8.50;4.37;;;;;;;;;;5030293;28;20572;-82
2022/10/04 06:24:18;;;;;;;8.90;5.20;;;;;;;;;;5007188;28;20221;-82
2022/10/04 06:27:44;;;;;;;8.80;4.13;;;;;;;;;;5018635;28;20189;-82
2022/10/04 06:31:17;;;;;;;4.70;3.70;;;;;;;;;;5018725;28;20177;-82
2022/10/04 06:34:42;;;;;;;5.93;3.80;;;;;;;;;;5018549;28;20225;-81
2022/10/04 06:38:21;;;;;;;5.80;3.37;;;;;;;;;;5018231;28;20186;-82
2022/10/04 06:41:53;;;;;;;8.93;3.60;;;;;;;;;;5024923;28;20229;-82
2022/10/04 06:45:04;;;;;;;6.80;3.50;;;;;;;;;;5018246;28;20181;-82
2022/10/04 06:48:32;;;;;;;4.57;3.30;;;;;;;;;;5017561;28;20185;-82
2022/10/04 06:51:49;;;;;;;5.83;2.90;;;;;;;;;;5018218;28;20182;-82
2022/10/04 06:55:12;;;;;;;4.10;2.63;;;;;;;;;;5020717;28;20201;-82
2022/10/04 06:58:28;;;;;;;3.90;2.50;;;;;;;;;;5018212;28;20193;-82
2022/10/04 07:01:34;;;;;;;7.70;3.00;;;;;;;;;;5005842;28;20688;-82
2022/10/04 07:04:48;;;;;;;4.77;2.67;;;;;;;;;;5016928;28;20657;-82
2022/10/04 07:08:08;;;;;;;3.77;2.63;;;;;;;;;;5009466;28;20641;-82
2022/10/04 07:11:21;;;;;;;5.23;2.70;;;;;;;;;;5029972;28;20205;-83
2022/10/04 07:14:35;;;;;;;3.60;2.37;;;;;;;;;;5020685;28;20197;-82
2022/10/04 07:17:42;;;;;;;5.27;2.80;;;;;;;;;;5008531;28;20201;-82
2022/10/04 07:20:50;;;;;;;3.07;2.50;;;;;;;;;;5035501;28;20213;-82
2022/10/04 07:24:00;;;;;;;6.83;2.70;;;;;;;;;;5008627;28;20230;-82
2022/10/04 07:27:09;;;;;;;5.20;2.80;;;;;;;;;;5009300;28;20521;-82
2022/10/04 07:30:19;;;;;;;10.23;2.73;;;;;;;;;;5008646;28;20201;-82
2022/10/04 07:33:28;;;;;;;6.83;2.63;;;;;;;;;;5008795;28;20716;-82
2022/10/04 07:37:11;;;;;;;4.33;2.93;;;;;;;;;;5008642;28;20197;-82
2022/10/04 07:40:29;;;;;;;8.37;2.70;;;;;;;;;;4970465;28;20207;-82
2022/10/04 07:43:48;;;;;;;4.57;2.50;;;;;;;;;;5020367;28;20568;-82
2022/10/04 07:47:26;;;;;;;7.60;2.83;;;;;;;;;;5003604;28;20672;-82
2022/10/04 07:50:48;;;;;;;8.87;3.80;;;;;;;;;;5027057;28;20617;-82
2022/10/04 07:54:10;;;;;;;8.47;4.00;;;;;;;;;;5016217;28;20216;-81
2022/10/04 07:57:29;;;;;;;7.70;3.20;;;;;;;;;;5015976;28;20213;-81
2022/10/04 08:00:43;;;;;;;6.90;3.00;;;;;;;;;;5027423;28;20205;-81
2022/10/04 08:04:07;;;;;;;6.07;3.80;;;;;;;;;;5026575;28;20212;-82
2022/10/04 08:07:42;;;;;;;4.60;3.63;;;;;;;;;;5024521;28;20178;-82
2022/10/04 08:11:18;;;;;;;4.37;3.87;;;;;;;;;;4996191;28;20182;-82
2022/10/04 08:14:35;;;;;;;5.07;3.70;;;;;;;;;;5007698;28;20216;-82
2022/10/04 08:17:54;;;;;;;4.87;3.00;;;;;;;;;;4996437;28;20546;-82
2022/10/04 08:21:02;;;;;;;9.77;3.77;;;;;;;;;;4995632;28;20210;-82
2022/10/04 08:24:25;;;;;;;8.63;3.40;;;;;;;;;;4995196;28;20222;-83
2022/10/04 08:27:32;;;;;;;6.30;3.17;;;;;;;;;;4994253;28;20182;-82
2022/10/04 08:30:58;;;;;;;9.10;3.77;;;;;;;;;;4994670;28;20635;-82
2022/10/04 08:34:43;;;;;;;4.90;3.10;;;;;;;;;;5004307;28;20217;-82
2022/10/04 08:38:00;;;;;;;5.97;2.93;;;;;;;;;;4992587;28;20181;-81
2022/10/04 08:41:34;;;;;;;4.10;2.90;;;;;;;;;;4993753;28;20217;-83
2022/10/04 08:45:00;;;;;;;5.83;2.57;;;;;;;;;;4992954;28;20522;-83
2022/10/04 08:48:29;;;;;;;4.20;3.00;;;;;;;;;;5004303;28;20634;-83
2022/10/04 08:51:54;;;;;;;6.33;2.20;;;;;;;;;;4995916;28;20174;-81
2022/10/04 08:55:27;;;;;;;6.27;2.47;;;;;;;;;;5004736;28;20177;-81
2022/10/04 08:58:53;;;;;;;3.77;2.27;;;;;;;;;;5006544;28;20169;-82
2022/10/04 09:02:01;;;;;;;4.07;2.00;;;;;;;;;;5005415;28;20209;-82
2022/10/04 09:05:08;;;;;;;4.67;2.20;;;;;;;;;;5004357;28;20197;-82
2022/10/04 09:08:34;;;;;;;4.17;1.90;;;;;;;;;;5004733;28;20197;-82
2022/10/04 09:12:00;;;;;;;4.53;1.50;;;;;;;;;;4992958;28;20178;-83
2022/10/04 09:15:13;;;;;;;5.60;1.77;;;;;;;;;;5016072;28;20186;-82
2022/10/04 09:18:28;;;;;;;3.97;1.13;;;;;;;;;;5004677;28;20174;-83
2022/10/04 09:21:55;;;;;;;5.30;1.33;;;;;;;;;;5003771;28;20213;-81
2022/10/04 09:25:38;;;;;;;4.43;1.97;;;;;;;;;;4998412;28;20638;-81
2022/10/04 09:29:05;;;;;;;4.17;1.50;;;;;;;;;;4993126;28;20182;-82
2022/10/04 09:32:27;;;;;;;3.67;1.50;;;;;;;;;;5003768;28;20178;-82
2022/10/04 09:35:51;;;;;;;2.80;1.10;;;;;;;;;;5004217;28;20603;-82
2022/10/04 09:39:24;;;;;;;5.80;1.53;;;;;;;;;;5015986;28;20182;-83
2022/10/04 09:42:38;;;;;;;2.07;1.27;;;;;;;;;;5009715;28;20224;-83
2022/10/04 09:45:58;;;;;;;2.50;1.33;;;;;;;;;;4996770;28;20182;-82
2022/10/04 09:49:08;;;;;;;5.43;1.70;;;;;;;;;;5007515;28;20182;-83
2022/10/04 09:52:38;;;;;;;4.00;1.50;;;;;;;;;;5008160;28;20178;-83
2022/10/04 09:56:04;;;;;;;3.03;1.33;;;;;;;;;;4996091;28;20201;-83
2022/10/04 09:59:40;;;;;;;4.10;1.30;;;;;;;;;;5007600;28;20197;-82
2022/10/04 10:03:33;;;;;;;6.53;1.43;;;;;;;;;;5007265;28;20562;-82
2022/10/04 10:06:49;;;;;;;3.73;1.20;;;;;;;;;;4961656;28;20205;-83
2022/10/04 10:13:57;;;;;;;5.43;1.73;;;;;;;;;;5019405;28;20217;-82
2022/10/04 10:17:19;;;;;;;11.60;1.80;;;;;;;;;;5012186;28;20197;-82
2022/10/04 10:20:57;;;;;;;4.27;1.67;;;;;;;;;;4996027;28;20170;-82
2022/10/04 10:24:06;;;;;;;6.53;1.20;;;;;;;;;;5007052;28;20217;-82
2022/10/04 10:27:46;;;;;;;6.30;1.37;;;;;;;;;;5018369;28;20181;-83
2022/10/04 10:30:50;;;;;;;4.90;1.40;;;;;;;;;;5007097;28;20178;-83
2022/10/04 10:34:20;;;;;;;11.73;1.30;;;;;;;;;;4996131;28;20225;-82
2022/10/04 10:37:56;;;;;;;4.27;1.00;;;;;;;;;;4995346;28;20185;-82
2022/10/04 10:41:24;;;;;;;2.83;1.30;;;;;;;;;;5018420;28;20213;-82
2022/10/04 10:44:45;;;;;;;3.10;1.03;;;;;;;;;;5007492;28;20540;-83
2022/10/04 10:47:49;;;;;;;3.60;1.17;;;;;;;;;;4995858;28;20186;-82
2022/10/04 10:51:09;;;;;;;6.13;1.20;;;;;;;;;;4994538;28;20185;-82
2022/10/04 10:54:25;;;;;;;4.67;1.33;;;;;;;;;;5005809;28;20221;-83
2022/10/04 10:57:59;;;;;;;2.70;1.10;;;;;;;;;;5016754;28;20197;-82
2022/10/04 11:01:11;;;;;;;3.87;1.20;;;;;;;;;;4982824;28;20562;-82
2022/10/04 11:04:44;;;;;;;4.23;1.20;;;;;;;;;;5007736;28;20205;-81
2022/10/04 11:07:53;;;;;;;4.77;1.50;;;;;;;;;;5008068;28;20185;-82
2022/10/04 11:11:48;;;;;;;7.83;1.50;;;;;;;;;;5019990;28;20530;-82
2022/10/04 11:14:58;;;;;;;3.13;1.40;;;;;;;;;;5000468;28;20656;-82
2022/10/04 11:18:06;;;;;;;4.43;1.20;;;;;;;;;;5017798;28;20193;-82
2022/10/04 11:21:36;;;;;;;4.27;1.20;;;;;;;;;;5006245;28;20225;-81
2022/10/04 11:24:59;;;;;;;7.33;1.53;;;;;;;;;;4984795;28;20190;-81
2022/10/04 11:28:18;;;;;;;4.47;1.33;;;;;;;;;;5008135;28;20182;-82
2022/10/04 11:31:39;;;;;;;5.60;1.50;;;;;;;;;;5008053;28;20654;-81
2022/10/04 11:34:58;;;;;;;9.93;1.80;;;;;;;;;;5018560;28;20178;-81
2022/10/04 11:38:47;;;;;;;3.97;1.30;;;;;;;;;;5017763;28;20637;-80
2022/10/04 11:42:10;;;;;;;3.00;1.33;;;;;;;;;;5017314;28;20213;-81
2022/10/04 11:45:37;;;;;;;3.50;1.27;;;;;;;;;;5018237;28;20189;-81
2022/10/04 11:48:44;;;;;;;4.00;1.27;;;;;;;;;;4994939;28;20181;-82
2022/10/04 11:52:04;;;;;;;3.63;1.30;;;;;;;;;;5006078;28;20633;-82
2022/10/04 11:55:52;;;;;;;2.53;1.20;;;;;;;;;;5005860;28;20634;-83
2022/10/04 11:59:12;;;;;;;5.60;1.47;;;;;;;;;;4994478;28;20185;-83
2022/10/04 12:02:35;;;;;;;4.00;1.40;;;;;;;;;;5006467;28;20213;-82
2022/10/04 12:06:02;;;;;;;4.40;1.20;;;;;;;;;;5018076;28;20185;-82
2022/10/04 12:09:23;;;;;;;5.40;1.20;;;;;;;;;;5017988;28;20181;-82
2022/10/04 12:13:14;;;;;;;3.90;1.17;;;;;;;;;;5007110;28;20206;-82
2022/10/04 12:16:55;;;;;;;3.40;1.30;;;;;;;;;;4974931;28;20197;-82
2022/10/04 12:20:31;;;;;;;1.93;1.00;;;;;;;;;;5017523;28;20182;-82
2022/10/04 12:23:47;;;;;;;4.50;1.20;;;;;;;;;;5007373;28;20217;-82
2022/10/04 12:26:54;;;;;;;3.07;1.30;;;;;;;;;;5007114;28;20185;-82
2022/10/04 12:30:13;;;;;;;2.67;0.90;;;;;;;;;;5004929;28;20636;-82
2022/10/04 12:33:34;;;;;;;3.17;0.90;;;;;;;;;;5016245;28;20217;-82
2022/10/04 12:36:56;;;;;;;5.27;1.30;;;;;;;;;;5004823;28;20289;-80
2022/10/04 12:40:27;;;;;;;1.50;0.97;;;;;;;;;;5006914;28;20189;-82
2022/10/04 12:43:50;;;;;;;3.73;1.00;;;;;;;;;;5016853;28;20700;-82
2022/10/04 12:47:13;;;;;;;2.57;1.00;;;;;;;;;;5004677;28;20519;-82
2022/10/04 12:50:49;;;;;;;3.97;0.90;;;;;;;;;;5005094;28;20186;-82
2022/10/04 12:54:32;;;;;;;2.80;1.00;;;;;;;;;;5016797;28;20218;-82
2022/10/04 12:58:02;;;;;;;2.40;1.20;;;;;;;;;;5020261;23;20657;-77
2022/10/04 13:01:29;;;;;;;3.13;0.90;;;;;;;;;;5013500;28;20194;-77
2022/10/04 13:05:27;;;;;;;4.27;1.40;;;;;;;;;;4982071;28;20208;-78
2022/10/04 13:08:49;;;;;;;3.37;1.10;;;;;;;;;;4976174;28;20202;-77
2022/10/04 13:12:10;;;;;;;2.47;1.00;;;;;;;;;;4994154;28;20179;-77
2022/10/04 13:15:14;;;;;;;1.10;0.83;;;;;;;;;;4985653;28;20183;-77
2022/10/04 13:18:29;;;;;;;2.87;1.10;;;;;;;;;;4997584;28;20213;-77
2022/10/04 13:22:01;;;;;;;1.43;0.70;;;;;;;;;;4997878;28;20210;-77
2022/10/04 13:25:20;;;;;;;2.47;0.97;;;;;;;;;;4986105;28;20186;-77
2022/10/04 13:28:29;;;;;;;37.23;2.80;;;;;;;;;;4985884;28;20184;-77
2022/10/04 13:31:50;;;;;;;5.07;1.27;;;;;;;;;;4998225;28;20189;-77
2022/10/04 13:35:06;;;;;;;2.53;1.10;;;;;;;;;;4985686;28;20180;-77
2022/10/04 13:38:32;;;;;;;4.10;1.00;;;;;;;;;;4998033;28;20614;-77
2022/10/04 13:41:46;;;;;;;2.30;0.90;;;;;;;;;;4997363;28;20664;-77
2022/10/04 13:45:11;;;;;;;2.07;1.00;;;;;;;;;;4997415;28;20186;-77
2022/10/04 13:48:33;;;;;;;1.53;0.80;;;;;;;;;;4997926;28;20184;-77
2022/10/04 13:51:37;;;;;;;10.33;1.60;;;;;;;;;;4985047;28;20184;-76
2022/10/04 13:58:45;;;;;;;4.10;1.20;;;;;;;;;;4996924;28;20206;-77
2022/10/04 14:02:16;;;;;;;2.37;1.10;;;;;;;;;;4997317;28;20210;-77
2022/10/04 14:05:48;;;;;;;4.13;1.10;;;;;;;;;;4996911;28;20633;-77
2022/10/04 14:09:09;;;;;;;5.70;1.30;;;;;;;;;;4996728;28;20175;-77
2022/10/04 14:12:34;;;;;;;4.60;1.70;;;;;;;;;;4984718;28;20518;-77
2022/10/04 14:16:03;;;;;;;3.43;1.27;;;;;;;;;;4996943;28;20186;-77
2022/10/04 14:19:21;;;;;;;3.10;1.30;;;;;;;;;;4996905;28;20182;-76
2022/10/04 14:22:58;;;;;;;4.43;1.30;;;;;;;;;;4973783;28;20230;-76
2022/10/04 14:26:20;;;;;;;5.87;1.40;;;;;;;;;;4996208;28;20190;-76
2022/10/04 14:29:30;;;;;;;5.20;1.50;;;;;;;;;;4996658;28;20182;-77
2022/10/04 14:32:44;;;;;;;4.07;1.30;;;;;;;;;;4984282;28;20214;-77
2022/10/04 14:36:07;;;;;;;2.63;1.20;;;;;;;;;;4995655;28;20218;-76
2022/10/04 14:39:40;;;;;;;6.07;1.03;;;;;;;;;;4996514;28;20206;-77
2022/10/04 14:43:14;;;;;;;4.87;1.40;;;;;;;;;;4996137;28;20225;-77
2022/10/04 14:46:40;;;;;;;5.03;1.57;;;;;;;;;;4995852;28;20205;-77
2022/10/04 14:50:23;;;;;;;4.33;1.63;;;;;;;;;;4995453;28;20183;-77
2022/10/04 14:53:27;;;;;;;15.70;1.83;;;;;;;;;;4990721;28;20222;-77
2022/10/04 14:56:56;;;;;;;4.57;1.40;;;;;;;;;;4995059;28;20182;-77
2022/10/04 15:00:13;;;;;;;2.97;1.40;;;;;;;;;;4996365;28;20174;-77
2022/10/04 15:03:55;;;;;;;2.63;1.50;;;;;;;;;;4972807;28;20230;-77
2022/10/04 15:07:02;;;;;;;4.30;1.33;;;;;;;;;;4996251;28;20190;-77
2022/10/04 15:10:18;;;;;;;6.50;1.30;;;;;;;;;;4972757;28;20186;-77
2022/10/04 15:13:47;;;;;;;2.80;1.30;;;;;;;;;;4973106;28;20218;-77
2022/10/04 15:16:57;;;;;;;6.07;1.80;;;;;;;;;;4983874;28;20174;-77
2022/10/04 15:20:18;;;;;;;3.63;1.80;;;;;;;;;;4994838;28;20190;-77
2022/10/04 15:23:33;;;;;;;6.00;1.50;;;;;;;;;;4994573;28;20574;-77
2022/10/04 15:26:53;;;;;;;4.10;1.60;;;;;;;;;;4994791;28;20182;-77
2022/10/04 15:30:21;;;;;;;9.80;1.70;;;;;;;;;;4983373;28;20186;-77
2022/10/04 15:33:33;;;;;;;4.37;1.33;;;;;;;;;;4994544;28;20222;-77
2022/10/04 15:36:50;;;;;;;3.07;1.50;;;;;;;;;;4994531;28;20633;-77
2022/10/04 15:40:21;;;;;;;5.23;1.83;;;;;;;;;;4995054;28;20186;-77
2022/10/04 15:43:34;;;;;;;3.87;1.20;;;;;;;;;;4978090;28;20300;-77
2022/10/04 15:47:06;;;;;;;6.77;1.37;;;;;;;;;;4983134;28;20202;-77
2022/10/04 15:50:23;;;;;;;2.67;1.60;;;;;;;;;;4994393;28;20193;-77
2022/10/04 15:53:53;;;;;;;7.77;1.70;;;;;;;;;;4994888;28;20214;-76
2022/10/04 15:57:18;;;;;;;4.93;1.47;;;;;;;;;;4982819;28;20186;-76
2022/10/04 16:00:27;;;;;;;18.27;1.83;;;;;;;;;;4982884;28;20531;-76
2022/10/04 16:04:10;;;;;;;12.93;2.03;;;;;;;;;;4993946;28;20222;-76
2022/10/04 16:07:32;;;;;;;9.43;2.00;;;;;;;;;;4988415;28;20621;-77
2022/10/04 16:11:09;;;;;;;14.40;1.80;;;;;;;;;;4993924;28;20186;-77
2022/10/04 16:14:18;;;;;;;37.60;2.80;;;;;;;;;;4993969;28;20329;-76
2022/10/04 16:18:04;;;;;;;33.57;3.00;;;;;;;;;;4992224;28;20202;-77
2022/10/04 16:21:29;;;;;;;15.37;2.23;;;;;;;;;;4950702;28;20210;-77
2022/10/04 16:24:39;;;;;;;5.27;2.00;;;;;;;;;;4963321;28;20239;-76
2022/10/04 16:27:56;;;;;;;2.13;1.30;;;;;;;;;;4975095;28;20191;-76
2022/10/04 16:31:25;;;;;;;3.10;1.63;;;;;;;;;;4963355;28;20183;-76
2022/10/04 16:34:47;;;;;;;6.60;1.60;;;;;;;;;;4963507;28;20183;-76
2022/10/04 16:37:51;;;;;;;3.63;1.60;;;;;;;;;;4972487;28;20205;-76
2022/10/04 16:41:07;;;;;;;3.63;1.77;;;;;;;;;;4982541;28;20514;-75
2022/10/04 16:44:29;;;;;;;4.03;1.43;;;;;;;;;;4982276;28;20221;-75
2022/10/04 16:47:46;;;;;;;5.40;1.97;;;;;;;;;;4994023;28;20187;-76
2022/10/04 16:51:15;;;;;;;6.20;1.90;;;;;;;;;;4981869;28;20665;-76
2022/10/04 16:54:47;;;;;;;3.10;1.63;;;;;;;;;;4982051;28;20221;-75
2022/10/04 16:58:25;;;;;;;9.07;2.13;;;;;;;;;;4981584;28;20201;-76
2022/10/04 17:01:55;;;;;;;5.60;2.20;;;;;;;;;;4994014;28;20186;-77
2022/10/04 17:05:18;;;;;;;4.57;1.60;;;;;;;;;;4970809;28;20186;-76
2022/10/04 17:08:27;;;;;;;2.60;1.80;;;;;;;;;;4992802;28;20186;-76
2022/10/04 17:11:42;;;;;;;4.63;1.67;;;;;;;;;;4981934;28;20208;-76
2022/10/04 17:14:55;;;;;;;4.80;1.53;;;;;;;;;;4993662;28;20190;-76
2022/10/04 17:18:11;;;;;;;5.13;2.20;;;;;;;;;;4981413;28;20187;-76
2022/10/04 17:21:43;;;;;;;3.77;1.80;;;;;;;;;;4993723;28;20186;-77
2022/10/04 17:24:57;;;;;;;7.53;1.87;;;;;;;;;;4981770;28;20175;-76
2022/10/04 17:28:13;;;;;;;6.60;1.80;;;;;;;;;;4993515;28;20186;-76
2022/10/04 17:31:41;;;;;;;6.40;2.20;;;;;;;;;;4981619;28;20194;-76
2022/10/04 17:35:24;;;;;;;5.63;2.40;;;;;;;;;;4993726;28;20182;-76
2022/10/04 17:38:47;;;;;;;4.07;2.47;;;;;;;;;;4990962;28;20198;-77
2022/10/04 17:41:57;;;;;;;4.97;2.30;;;;;;;;;;4981904;28;20178;-76
2022/10/04 17:45:33;;;;;;;6.67;2.40;;;;;;;;;;4981354;28;20194;-76
2022/10/04 17:55:55;;;;;;;6.83;2.70;;;;;;;;;;4986037;28;20202;-76
2022/10/04 17:59:07;;;;;;;6.37;2.47;;;;;;;;;;4993386;28;20205;-75
2022/10/04 18:02:26;;;;;;;7.30;2.87;;;;;;;;;;4996912;28;20182;-76
2022/10/04 18:05:46;;;;;;;5.97;2.77;;;;;;;;;;4996688;28;20194;-75
2022/10/04 18:08:56;;;;;;;8.00;2.90;;;;;;;;;;4996660;28;20510;-75
2022/10/04 18:12:06;;;;;;;3.27;2.50;;;;;;;;;;4996813;28;20183;-76
2022/10/04 18:15:21;;;;;;;5.07;2.67;;;;;;;;;;4996973;28;20186;-76
2022/10/04 18:18:36;;;;;;;7.90;2.80;;;;;;;;;;4984590;28;20198;-76
2022/10/04 18:21:47;;;;;;;5.67;2.50;;;;;;;;;;4995714;28;20665;-76
2022/10/04 18:25:13;;;;;;;6.47;2.77;;;;;;;;;;4996798;28;20217;-77
2022/10/04 18:28:21;;;;;;;7.20;3.20;;;;;;;;;;4997014;28;20186;-77
2022/10/04 18:31:31;;;;;;;3.43;2.67;;;;;;;;;;4996927;28;20182;-77
2022/10/04 18:34:36;;;;;;;4.53;2.93;;;;;;;;;;4996235;28;20186;-76
2022/10/04 18:37:41;;;;;;;5.53;2.87;;;;;;;;;;4984465;28;20182;-77
2022/10/04 18:40:54;;;;;;;9.77;3.17;;;;;;;;;;4995466;28;20182;-76
2022/10/04 18:43:58;;;;;;;11.67;4.30;;;;;;;;;;4995138;28;20229;-77
2022/10/04 18:47:15;;;;;;;3.60;2.83;;;;;;;;;;4995539;28;20514;-75
2022/10/04 18:50:19;;;;;;;8.37;3.13;;;;;;;;;;4984327;28;20187;-74
2022/10/04 18:53:44;;;;;;;6.60;3.07;;;;;;;;;;4973354;28;20561;-75
2022/10/04 18:57:24;;;;;;;5.60;3.13;;;;;;;;;;4996080;28;20179;-75
2022/10/04 19:04:41;;;;;;;8.57;3.57;;;;;;;;;;4996419;28;20230;-75
2022/10/04 19:08:48;;;;;;;4.93;3.23;;;;;;;;;;4995179;28;20590;-76
2022/10/04 19:12:03;;;;;;;6.53;3.03;;;;;;;;;;4974590;28;20183;-77
2022/10/04 19:15:29;;;;;;;11.50;3.60;;;;;;;;;;4959883;28;20206;-77
2022/10/04 19:18:45;;;;;;;6.50;3.60;;;;;;;;;;4964499;28;20546;-76
2022/10/04 19:22:00;;;;;;;7.17;3.60;;;;;;;;;;4976593;28;20187;-77
2022/10/04 19:25:16;;;;;;;8.17;3.53;;;;;;;;;;4975550;28;20210;-78
2022/10/04 19:28:31;;;;;;;7.53;3.53;;;;;;;;;;4964195;28;20204;-77
2022/10/04 19:31:41;;;;;;;5.90;3.37;;;;;;;;;;4975435;28;20282;-77
2022/10/04 19:35:04;;;;;;;7.23;3.83;;;;;;;;;;4964041;28;20179;-76
2022/10/04 19:38:42;;;;;;;4.93;3.47;;;;;;;;;;4964441;28;20188;-77
2022/10/04 19:41:54;;;;;;;7.90;3.57;;;;;;;;;;4974908;28;20182;-76
2022/10/04 19:45:18;;;;;;;5.30;3.30;;;;;;;;;;4964411;28;20207;-77
2022/10/04 19:48:25;;;;;;;6.00;3.23;;;;;;;;;;4964293;28;20180;-77
2022/10/04 19:51:35;;;;;;;7.13;3.27;;;;;;;;;;4964543;28;20635;-77
2022/10/04 19:54:39;;;;;;;4.80;3.20;;;;;;;;;;4976109;28;20183;-77
2022/10/04 19:57:57;;;;;;;4.63;3.17;;;;;;;;;;4975866;28;20531;-77
2022/10/04 20:01:12;;;;;;;6.67;3.20;;;;;;;;;;4965639;28;20191;-78
2022/10/04 20:04:36;;;;;;;6.37;3.57;;;;;;;;;;4976810;28;20231;-77
2022/10/04 20:07:48;;;;;;;5.33;3.33;;;;;;;;;;4965914;28;20183;-77
2022/10/04 20:11:13;;;;;;;7.27;3.60;;;;;;;;;;4977075;28;20665;-78
2022/10/04 20:14:20;;;;;;;7.20;3.10;;;;;;;;;;4975387;28;20578;-78